sensor_id;sensor_type;location;lat;lon;timestamp;P1;durP1;ratioP1;P2;durP2;ratioP2
43664;SDS011;29263;48.172;11.484;2022-07-30T00:01:51;5.50;;;1.98;;
43664;SDS011;29263;48.172;11.484;2022-07-30T00:04:17;6.00;;;2.22;;
43664;SDS011;29263;48.172;11.484;2022-07-30T00:06:42;2.58;;;1.80;;
43664;SDS011;29263;48.172;11.484;2022-07-30T00:09:08;2.60;;;1.90;;
43664;SDS011;29263;48.172;11.484;2022-07-30T00:11:34;2.15;;;1.95;;
43664;SDS011;29263;48.172;11.484;2022-07-30T00:14:20;3.22;;;2.10;;
43664;SDS011;29263;48.172;11.484;2022-07-30T00:16:45;1.95;;;1.60;;
43664;SDS011;29263;48.172;11.484;2022-07-30T00:19:11;4.10;;;2.20;;
43664;SDS011;29263;48.172;11.484;2022-07-30T00:21:39;1.90;;;1.60;;
43664;SDS011;29263;48.172;11.484;2022-07-30T00:24:05;3.85;;;2.30;;
43664;SDS011;29263;48.172;11.484;2022-07-30T00:26:32;3.13;;;2.13;;
43664;SDS011;29263;48.172;11.484;2022-07-30T00:28:58;1.85;;;1.73;;
43664;SDS011;29263;48.172;11.484;2022-07-30T00:31:25;2.55;;;1.80;;
43664;SDS011;29263;48.172;11.484;2022-07-30T00:33:51;2.03;;;1.85;;
43664;SDS011;29263;48.172;11.484;2022-07-30T00:36:16;3.17;;;2.15;;
43664;SDS011;29263;48.172;11.484;2022-07-30T00:38:42;2.90;;;2.15;;
43664;SDS011;29263;48.172;11.484;2022-07-30T00:41:08;2.72;;;2.30;;
43664;SDS011;29263;48.172;11.484;2022-07-30T00:43:33;1.98;;;1.70;;
43664;SDS011;29263;48.172;11.484;2022-07-30T00:45:59;2.45;;;1.70;;
43664;SDS011;29263;48.172;11.484;2022-07-30T00:48:25;2.10;;;1.90;;
43664;SDS011;29263;48.172;11.484;2022-07-30T00:50:51;2.20;;;2.00;;
43664;SDS011;29263;48.172;11.484;2022-07-30T00:53:16;2.45;;;1.85;;
43664;SDS011;29263;48.172;11.484;2022-07-30T00:55:42;2.30;;;2.10;;
43664;SDS011;29263;48.172;11.484;2022-07-30T00:58:08;3.08;;;1.77;;
43664;SDS011;29263;48.172;11.484;2022-07-30T01:00:34;3.75;;;2.10;;
43664;SDS011;29263;48.172;11.484;2022-07-30T01:02:59;2.63;;;2.00;;
43664;SDS011;29263;48.172;11.484;2022-07-30T01:05:25;3.17;;;1.80;;
43664;SDS011;29263;48.172;11.484;2022-07-30T01:07:51;2.63;;;2.00;;
43664;SDS011;29263;48.172;11.484;2022-07-30T01:10:16;4.00;;;1.90;;
43664;SDS011;29263;48.172;11.484;2022-07-30T01:12:42;2.40;;;2.20;;
43664;SDS011;29263;48.172;11.484;2022-07-30T01:15:09;2.20;;;2.00;;
43664;SDS011;29263;48.172;11.484;2022-07-30T01:17:36;3.42;;;2.20;;
43664;SDS011;29263;48.172;11.484;2022-07-30T01:20:06;3.05;;;2.30;;
43664;SDS011;29263;48.172;11.484;2022-07-30T01:27:54;3.22;;;2.20;;
43664;SDS011;29263;48.172;11.484;2022-07-30T01:30:24;3.13;;;2.30;;
43664;SDS011;29263;48.172;11.484;2022-07-30T01:32:52;3.05;;;2.50;;
43664;SDS011;29263;48.172;11.484;2022-07-30T01:35:38;3.80;;;2.22;;
43664;SDS011;29263;48.172;11.484;2022-07-30T01:38:07;2.58;;;2.38;;
43664;SDS011;29263;48.172;11.484;2022-07-30T01:40:36;3.00;;;2.35;;
43664;SDS011;29263;48.172;11.484;2022-07-30T01:43:05;2.50;;;2.30;;
43664;SDS011;29263;48.172;11.484;2022-07-30T01:45:32;3.15;;;2.40;;
43664;SDS011;29263;48.172;11.484;2022-07-30T01:47:59;3.30;;;2.50;;
43664;SDS011;29263;48.172;11.484;2022-07-30T01:50:27;4.47;;;2.40;;
43664;SDS011;29263;48.172;11.484;2022-07-30T01:52:55;3.85;;;2.30;;
43664;SDS011;29263;48.172;11.484;2022-07-30T01:55:24;3.90;;;2.20;;
43664;SDS011;29263;48.172;11.484;2022-07-30T01:57:54;2.15;;;1.95;;
43664;SDS011;29263;48.172;11.484;2022-07-30T02:00:22;2.70;;;2.03;;
43664;SDS011;29263;48.172;11.484;2022-07-30T02:02:50;2.22;;;2.03;;
43664;SDS011;29263;48.172;11.484;2022-07-30T02:05:16;4.85;;;2.20;;
43664;SDS011;29263;48.172;11.484;2022-07-30T02:07:51;3.00;;;1.80;;
43664;SDS011;29263;48.172;11.484;2022-07-30T02:10:23;2.33;;;1.90;;
43664;SDS011;29263;48.172;11.484;2022-07-30T02:13:16;3.60;;;2.25;;
43664;SDS011;29263;48.172;11.484;2022-07-30T02:15:56;3.78;;;2.03;;
43664;SDS011;29263;48.172;11.484;2022-07-30T02:18:31;2.65;;;2.05;;
43664;SDS011;29263;48.172;11.484;2022-07-30T02:21:08;3.20;;;2.28;;
43664;SDS011;29263;48.172;11.484;2022-07-30T02:23:35;2.67;;;2.38;;
43664;SDS011;29263;48.172;11.484;2022-07-30T02:26:04;3.92;;;2.45;;
43664;SDS011;29263;48.172;11.484;2022-07-30T02:28:36;4.70;;;2.55;;
43664;SDS011;29263;48.172;11.484;2022-07-30T02:31:06;2.72;;;2.20;;
43664;SDS011;29263;48.172;11.484;2022-07-30T02:33:35;3.13;;;2.53;;
43664;SDS011;29263;48.172;11.484;2022-07-30T02:36:05;2.38;;;2.13;;
43664;SDS011;29263;48.172;11.484;2022-07-30T02:38:31;4.47;;;2.60;;
43664;SDS011;29263;48.172;11.484;2022-07-30T02:40:58;2.90;;;2.53;;
43664;SDS011;29263;48.172;11.484;2022-07-30T02:43:26;3.13;;;2.60;;
43664;SDS011;29263;48.172;11.484;2022-07-30T02:45:53;4.95;;;2.78;;
43664;SDS011;29263;48.172;11.484;2022-07-30T02:48:21;3.70;;;2.85;;
43664;SDS011;29263;48.172;11.484;2022-07-30T02:50:51;3.85;;;2.90;;
43664;SDS011;29263;48.172;11.484;2022-07-30T02:53:38;3.78;;;2.97;;
43664;SDS011;29263;48.172;11.484;2022-07-30T02:56:05;4.53;;;3.33;;
43664;SDS011;29263;48.172;11.484;2022-07-30T02:58:31;3.72;;;3.22;;
43664;SDS011;29263;48.172;11.484;2022-07-30T03:01:01;4.68;;;3.13;;
43664;SDS011;29263;48.172;11.484;2022-07-30T03:03:30;4.03;;;3.20;;
43664;SDS011;29263;48.172;11.484;2022-07-30T03:05:56;5.68;;;3.60;;
43664;SDS011;29263;48.172;11.484;2022-07-30T03:08:23;3.17;;;2.88;;
43664;SDS011;29263;48.172;11.484;2022-07-30T03:10:52;4.82;;;3.00;;
43664;SDS011;29263;48.172;11.484;2022-07-30T03:13:19;6.13;;;3.72;;
43664;SDS011;29263;48.172;11.484;2022-07-30T03:15:48;5.60;;;3.15;;
43664;SDS011;29263;48.172;11.484;2022-07-30T03:18:16;3.60;;;2.78;;
43664;SDS011;29263;48.172;11.484;2022-07-30T03:23:12;4.10;;;3.20;;
43664;SDS011;29263;48.172;11.484;2022-07-30T03:25:41;3.60;;;3.30;;
43664;SDS011;29263;48.172;11.484;2022-07-30T03:28:12;3.72;;;3.08;;
43664;SDS011;29263;48.172;11.484;2022-07-30T03:30:39;3.22;;;2.88;;
43664;SDS011;29263;48.172;11.484;2022-07-30T03:33:08;4.35;;;3.58;;
43664;SDS011;29263;48.172;11.484;2022-07-30T03:35:36;3.58;;;3.17;;
43664;SDS011;29263;48.172;11.484;2022-07-30T03:38:02;5.85;;;3.60;;
43664;SDS011;29263;48.172;11.484;2022-07-30T03:40:28;4.82;;;3.60;;
43664;SDS011;29263;48.172;11.484;2022-07-30T03:42:55;4.20;;;3.80;;
43664;SDS011;29263;48.172;11.484;2022-07-30T03:45:21;7.60;;;3.17;;
43664;SDS011;29263;48.172;11.484;2022-07-30T03:47:47;4.82;;;3.35;;
43664;SDS011;29263;48.172;11.484;2022-07-30T03:50:13;5.45;;;3.20;;
43664;SDS011;29263;48.172;11.484;2022-07-30T03:52:40;5.15;;;3.72;;
43664;SDS011;29263;48.172;11.484;2022-07-30T03:55:06;4.22;;;3.83;;
43664;SDS011;29263;48.172;11.484;2022-07-30T03:57:33;4.20;;;3.38;;
43664;SDS011;29263;48.172;11.484;2022-07-30T04:00:00;4.85;;;3.38;;
43664;SDS011;29263;48.172;11.484;2022-07-30T04:02:26;5.93;;;3.65;;
43664;SDS011;29263;48.172;11.484;2022-07-30T04:04:51;3.90;;;3.50;;
43664;SDS011;29263;48.172;11.484;2022-07-30T04:07:17;3.42;;;3.13;;
43664;SDS011;29263;48.172;11.484;2022-07-30T04:09:45;4.55;;;3.40;;
43664;SDS011;29263;48.172;11.484;2022-07-30T04:12:10;3.80;;;3.40;;
43664;SDS011;29263;48.172;11.484;2022-07-30T04:14:41;5.63;;;3.13;;
43664;SDS011;29263;48.172;11.484;2022-07-30T04:17:15;4.13;;;3.17;;
43664;SDS011;29263;48.172;11.484;2022-07-30T04:19:47;7.13;;;3.25;;
43664;SDS011;29263;48.172;11.484;2022-07-30T04:22:17;4.75;;;3.45;;
43664;SDS011;29263;48.172;11.484;2022-07-30T04:24:48;3.83;;;3.05;;
43664;SDS011;29263;48.172;11.484;2022-07-30T04:27:16;3.63;;;3.20;;
43664;SDS011;29263;48.172;11.484;2022-07-30T04:29:42;11.23;;;4.47;;
43664;SDS011;29263;48.172;11.484;2022-07-30T04:32:08;4.97;;;3.58;;
43664;SDS011;29263;48.172;11.484;2022-07-30T04:34:34;6.13;;;3.42;;
43664;SDS011;29263;48.172;11.484;2022-07-30T04:37:00;7.30;;;3.78;;
43664;SDS011;29263;48.172;11.484;2022-07-30T04:39:28;3.80;;;3.40;;
43664;SDS011;29263;48.172;11.484;2022-07-30T04:41:54;4.85;;;3.83;;
43664;SDS011;29263;48.172;11.484;2022-07-30T04:44:20;4.63;;;3.33;;
43664;SDS011;29263;48.172;11.484;2022-07-30T04:46:45;4.03;;;3.45;;
43664;SDS011;29263;48.172;11.484;2022-07-30T04:49:13;5.75;;;3.65;;
43664;SDS011;29263;48.172;11.484;2022-07-30T04:54:10;4.10;;;3.70;;
43664;SDS011;29263;48.172;11.484;2022-07-30T04:56:38;5.05;;;4.05;;
43664;SDS011;29263;48.172;11.484;2022-07-30T04:59:07;3.90;;;3.50;;
43664;SDS011;29263;48.172;11.484;2022-07-30T05:01:35;3.95;;;3.55;;
43664;SDS011;29263;48.172;11.484;2022-07-30T05:04:04;5.22;;;3.60;;
43664;SDS011;29263;48.172;11.484;2022-07-30T05:06:32;4.82;;;3.53;;
43664;SDS011;29263;48.172;11.484;2022-07-30T05:09:00;4.40;;;4.00;;
43664;SDS011;29263;48.172;11.484;2022-07-30T05:11:26;6.25;;;4.00;;
43664;SDS011;29263;48.172;11.484;2022-07-30T05:13:52;4.10;;;3.42;;
43664;SDS011;29263;48.172;11.484;2022-07-30T05:16:18;4.32;;;3.65;;
43664;SDS011;29263;48.172;11.484;2022-07-30T05:18:44;6.93;;;3.80;;
43664;SDS011;29263;48.172;11.484;2022-07-30T05:21:10;4.35;;;3.53;;
43664;SDS011;29263;48.172;11.484;2022-07-30T05:23:35;4.97;;;3.03;;
43664;SDS011;29263;48.172;11.484;2022-07-30T05:26:01;3.90;;;3.40;;
43664;SDS011;29263;48.172;11.484;2022-07-30T05:28:27;6.65;;;3.53;;
43664;SDS011;29263;48.172;11.484;2022-07-30T05:30:53;5.63;;;3.30;;
43664;SDS011;29263;48.172;11.484;2022-07-30T05:33:20;4.05;;;3.22;;
43664;SDS011;29263;48.172;11.484;2022-07-30T05:35:47;3.65;;;3.10;;
43664;SDS011;29263;48.172;11.484;2022-07-30T05:38:14;4.22;;;3.03;;
43664;SDS011;29263;48.172;11.484;2022-07-30T05:40:42;3.22;;;2.92;;
43664;SDS011;29263;48.172;11.484;2022-07-30T05:43:10;4.50;;;3.05;;
43664;SDS011;29263;48.172;11.484;2022-07-30T05:45:38;3.35;;;2.78;;
43664;SDS011;29263;48.172;11.484;2022-07-30T05:48:04;3.40;;;3.10;;
43664;SDS011;29263;48.172;11.484;2022-07-30T05:50:30;5.40;;;3.08;;
43664;SDS011;29263;48.172;11.484;2022-07-30T05:52:55;3.35;;;2.80;;
43664;SDS011;29263;48.172;11.484;2022-07-30T05:55:22;5.03;;;2.67;;
43664;SDS011;29263;48.172;11.484;2022-07-30T05:57:48;3.78;;;2.90;;
43664;SDS011;29263;48.172;11.484;2022-07-30T06:00:14;3.58;;;3.17;;
43664;SDS011;29263;48.172;11.484;2022-07-30T06:02:40;5.60;;;3.38;;
43664;SDS011;29263;48.172;11.484;2022-07-30T06:05:06;3.28;;;2.97;;
43664;SDS011;29263;48.172;11.484;2022-07-30T06:07:32;3.08;;;2.75;;
43664;SDS011;29263;48.172;11.484;2022-07-30T06:09:58;4.25;;;2.72;;
43664;SDS011;29263;48.172;11.484;2022-07-30T06:12:26;3.38;;;3.08;;
43664;SDS011;29263;48.172;11.484;2022-07-30T06:15:14;4.72;;;2.90;;
43664;SDS011;29263;48.172;11.484;2022-07-30T06:17:43;3.17;;;2.88;;
43664;SDS011;29263;48.172;11.484;2022-07-30T06:20:10;3.90;;;2.80;;
43664;SDS011;29263;48.172;11.484;2022-07-30T06:22:37;6.72;;;2.90;;
43664;SDS011;29263;48.172;11.484;2022-07-30T06:25:04;4.00;;;2.50;;
43664;SDS011;29263;48.172;11.484;2022-07-30T06:27:32;7.73;;;2.90;;
43664;SDS011;29263;48.172;11.484;2022-07-30T06:30:01;8.00;;;2.85;;
43664;SDS011;29263;48.172;11.484;2022-07-30T06:32:30;3.45;;;2.97;;
43664;SDS011;29263;48.172;11.484;2022-07-30T06:34:56;4.80;;;3.20;;
43664;SDS011;29263;48.172;11.484;2022-07-30T06:37:23;4.85;;;2.90;;
43664;SDS011;29263;48.172;11.484;2022-07-30T06:39:49;3.35;;;3.05;;
43664;SDS011;29263;48.172;11.484;2022-07-30T06:42:17;4.70;;;3.35;;
43664;SDS011;29263;48.172;11.484;2022-07-30T06:44:43;6.35;;;3.60;;
43664;SDS011;29263;48.172;11.484;2022-07-30T06:47:08;6.10;;;3.42;;
43664;SDS011;29263;48.172;11.484;2022-07-30T06:49:34;4.50;;;3.30;;
43664;SDS011;29263;48.172;11.484;2022-07-30T06:52:00;3.00;;;2.75;;
43664;SDS011;29263;48.172;11.484;2022-07-30T06:54:26;3.85;;;3.38;;
43664;SDS011;29263;48.172;11.484;2022-07-30T06:56:52;5.20;;;3.85;;
43664;SDS011;29263;48.172;11.484;2022-07-30T06:59:18;5.63;;;3.72;;
43664;SDS011;29263;48.172;11.484;2022-07-30T07:01:44;4.15;;;3.35;;
43664;SDS011;29263;48.172;11.484;2022-07-30T07:04:09;5.28;;;3.15;;
43664;SDS011;29263;48.172;11.484;2022-07-30T07:06:35;4.13;;;3.60;;
43664;SDS011;29263;48.172;11.484;2022-07-30T07:09:02;6.53;;;4.03;;
43664;SDS011;29263;48.172;11.484;2022-07-30T07:11:28;4.93;;;3.47;;
43664;SDS011;29263;48.172;11.484;2022-07-30T07:13:54;6.18;;;3.80;;
43664;SDS011;29263;48.172;11.484;2022-07-30T07:16:20;4.75;;;3.35;;
43664;SDS011;29263;48.172;11.484;2022-07-30T07:18:49;4.43;;;3.92;;
43664;SDS011;29263;48.172;11.484;2022-07-30T07:21:18;8.07;;;4.00;;
43664;SDS011;29263;48.172;11.484;2022-07-30T07:23:44;5.38;;;4.53;;
43664;SDS011;29263;48.172;11.484;2022-07-30T07:26:12;4.63;;;3.97;;
43664;SDS011;29263;48.172;11.484;2022-07-30T07:28:38;4.15;;;3.58;;
43664;SDS011;29263;48.172;11.484;2022-07-30T07:31:09;4.25;;;3.53;;
43664;SDS011;29263;48.172;11.484;2022-07-30T07:36:01;6.38;;;3.17;;
43664;SDS011;29263;48.172;11.484;2022-07-30T07:38:26;5.10;;;3.95;;
43664;SDS011;29263;48.172;11.484;2022-07-30T07:40:52;5.38;;;3.83;;
43664;SDS011;29263;48.172;11.484;2022-07-30T07:43:18;7.97;;;4.30;;
43664;SDS011;29263;48.172;11.484;2022-07-30T07:45:44;4.80;;;3.80;;
43664;SDS011;29263;48.172;11.484;2022-07-30T07:48:10;9.70;;;3.67;;
43664;SDS011;29263;48.172;11.484;2022-07-30T07:50:36;10.32;;;3.78;;
43664;SDS011;29263;48.172;11.484;2022-07-30T07:53:02;6.70;;;4.10;;
43664;SDS011;29263;48.172;11.484;2022-07-30T07:55:28;6.57;;;3.60;;
43664;SDS011;29263;48.172;11.484;2022-07-30T07:57:54;4.60;;;3.38;;
43664;SDS011;29263;48.172;11.484;2022-07-30T08:00:20;5.43;;;3.72;;
43664;SDS011;29263;48.172;11.484;2022-07-30T08:02:46;7.90;;;3.50;;
43664;SDS011;29263;48.172;11.484;2022-07-30T08:05:12;5.97;;;3.90;;
43664;SDS011;29263;48.172;11.484;2022-07-30T08:07:38;5.35;;;3.53;;
43664;SDS011;29263;48.172;11.484;2022-07-30T08:10:06;6.90;;;3.92;;
43664;SDS011;29263;48.172;11.484;2022-07-30T08:12:32;5.07;;;3.45;;
43664;SDS011;29263;48.172;11.484;2022-07-30T08:14:58;5.80;;;3.58;;
43664;SDS011;29263;48.172;11.484;2022-07-30T08:17:24;5.53;;;3.72;;
43664;SDS011;29263;48.172;11.484;2022-07-30T08:19:50;7.75;;;3.22;;
43664;SDS011;29263;48.172;11.484;2022-07-30T08:22:16;7.50;;;3.13;;
43664;SDS011;29263;48.172;11.484;2022-07-30T08:24:42;5.65;;;2.88;;
43664;SDS011;29263;48.172;11.484;2022-07-30T08:27:07;5.93;;;2.85;;
43664;SDS011;29263;48.172;11.484;2022-07-30T08:29:33;5.25;;;2.88;;
43664;SDS011;29263;48.172;11.484;2022-07-30T08:31:59;7.45;;;2.75;;
43664;SDS011;29263;48.172;11.484;2022-07-30T08:34:25;6.18;;;2.90;;
43664;SDS011;29263;48.172;11.484;2022-07-30T08:36:52;4.28;;;2.67;;
43664;SDS011;29263;48.172;11.484;2022-07-30T08:39:18;3.22;;;2.08;;
43664;SDS011;29263;48.172;11.484;2022-07-30T08:41:43;5.32;;;2.40;;
43664;SDS011;29263;48.172;11.484;2022-07-30T08:44:10;4.68;;;2.50;;
43664;SDS011;29263;48.172;11.484;2022-07-30T08:46:40;5.75;;;3.45;;
43664;SDS011;29263;48.172;11.484;2022-07-30T08:49:08;5.18;;;2.90;;
43664;SDS011;29263;48.172;11.484;2022-07-30T08:51:36;3.10;;;2.80;;
43664;SDS011;29263;48.172;11.484;2022-07-30T08:54:04;4.15;;;2.30;;
43664;SDS011;29263;48.172;11.484;2022-07-30T08:56:32;4.35;;;2.90;;
43664;SDS011;29263;48.172;11.484;2022-07-30T08:59:00;6.07;;;2.70;;
43664;SDS011;29263;48.172;11.484;2022-07-30T09:01:26;3.35;;;2.40;;
43664;SDS011;29263;48.172;11.484;2022-07-30T09:03:52;3.67;;;2.38;;
43664;SDS011;29263;48.172;11.484;2022-07-30T09:06:18;3.75;;;2.35;;
43664;SDS011;29263;48.172;11.484;2022-07-30T09:09:03;3.35;;;2.40;;
43664;SDS011;29263;48.172;11.484;2022-07-30T09:11:29;3.28;;;2.30;;
43664;SDS011;29263;48.172;11.484;2022-07-30T09:14:06;2.88;;;2.30;;
43664;SDS011;29263;48.172;11.484;2022-07-30T09:16:34;5.40;;;2.30;;
43664;SDS011;29263;48.172;11.484;2022-07-30T09:19:09;3.03;;;2.08;;
43664;SDS011;29263;48.172;11.484;2022-07-30T09:21:40;5.07;;;2.30;;
43664;SDS011;29263;48.172;11.484;2022-07-30T09:24:07;2.85;;;1.90;;
43664;SDS011;29263;48.172;11.484;2022-07-30T09:27:07;3.67;;;2.57;;
43664;SDS011;29263;48.172;11.484;2022-07-30T09:29:29;5.47;;;2.08;;
43664;SDS011;29263;48.172;11.484;2022-07-30T09:34:30;4.10;;;2.28;;
43664;SDS011;29263;48.172;11.484;2022-07-30T09:37:01;4.30;;;2.00;;
43664;SDS011;29263;48.172;11.484;2022-07-30T09:39:33;2.20;;;2.00;;
43664;SDS011;29263;48.172;11.484;2022-07-30T09:42:02;4.55;;;2.08;;
43664;SDS011;29263;48.172;11.484;2022-07-30T09:44:30;2.22;;;1.80;;
43664;SDS011;29263;48.172;11.484;2022-07-30T09:46:56;3.70;;;1.98;;
43664;SDS011;29263;48.172;11.484;2022-07-30T09:49:24;3.15;;;1.67;;
43664;SDS011;29263;48.172;11.484;2022-07-30T09:51:52;3.75;;;2.33;;
43664;SDS011;29263;48.172;11.484;2022-07-30T09:54:19;3.47;;;2.05;;
43664;SDS011;29263;48.172;11.484;2022-07-30T09:56:45;3.78;;;2.08;;
43664;SDS011;29263;48.172;11.484;2022-07-30T09:59:27;3.45;;;1.55;;
43664;SDS011;29263;48.172;11.484;2022-07-30T10:01:54;2.67;;;1.63;;
43664;SDS011;29263;48.172;11.484;2022-07-30T10:06:50;2.33;;;1.63;;
43664;SDS011;29263;48.172;11.484;2022-07-30T10:11:55;3.30;;;1.48;;
43664;SDS011;29263;48.172;11.484;2022-07-30T10:14:28;2.53;;;1.90;;
43664;SDS011;29263;48.172;11.484;2022-07-30T10:16:56;2.00;;;1.25;;
43664;SDS011;29263;48.172;11.484;2022-07-30T10:19:30;2.53;;;1.45;;
43664;SDS011;29263;48.172;11.484;2022-07-30T10:21:56;3.60;;;1.33;;
43664;SDS011;29263;48.172;11.484;2022-07-30T10:24:24;2.88;;;1.58;;
43664;SDS011;29263;48.172;11.484;2022-07-30T10:26:51;1.35;;;1.13;;
43664;SDS011;29263;48.172;11.484;2022-07-30T10:29:18;2.28;;;1.55;;
43664;SDS011;29263;48.172;11.484;2022-07-30T10:31:45;1.23;;;1.00;;
43664;SDS011;29263;48.172;11.484;2022-07-30T10:34:12;2.95;;;1.20;;
43664;SDS011;29263;48.172;11.484;2022-07-30T10:36:45;2.38;;;1.10;;
43664;SDS011;29263;48.172;11.484;2022-07-30T10:39:19;4.40;;;1.08;;
43664;SDS011;29263;48.172;11.484;2022-07-30T10:47:18;2.55;;;0.98;;
43664;SDS011;29263;48.172;11.484;2022-07-30T10:50:27;1.48;;;0.90;;
43664;SDS011;29263;48.172;11.484;2022-07-30T10:52:45;2.47;;;1.20;;
43664;SDS011;29263;48.172;11.484;2022-07-30T10:55:18;1.45;;;1.13;;
43664;SDS011;29263;48.172;11.484;2022-07-30T10:58:03;3.10;;;1.25;;
43664;SDS011;29263;48.172;11.484;2022-07-30T11:00:34;1.77;;;1.00;;
43664;SDS011;29263;48.172;11.484;2022-07-30T11:03:24;5.30;;;1.20;;
43664;SDS011;29263;48.172;11.484;2022-07-30T11:08:41;3.13;;;1.10;;
43664;SDS011;29263;48.172;11.484;2022-07-30T11:16:19;2.78;;;1.10;;
43664;SDS011;29263;48.172;11.484;2022-07-30T11:21:42;1.83;;;1.00;;
43664;SDS011;29263;48.172;11.484;2022-07-30T11:29:58;1.10;;;0.90;;
43664;SDS011;29263;48.172;11.484;2022-07-30T11:32:29;1.42;;;1.05;;
43664;SDS011;29263;48.172;11.484;2022-07-30T11:37:57;1.67;;;1.02;;
43664;SDS011;29263;48.172;11.484;2022-07-30T11:40:37;2.10;;;1.00;;
43664;SDS011;29263;48.172;11.484;2022-07-30T11:43:32;2.63;;;0.90;;
43664;SDS011;29263;48.172;11.484;2022-07-30T11:46:10;2.05;;;1.13;;
43664;SDS011;29263;48.172;11.484;2022-07-30T11:48:42;2.75;;;1.17;;
43664;SDS011;29263;48.172;11.484;2022-07-30T11:51:23;3.42;;;1.00;;
43664;SDS011;29263;48.172;11.484;2022-07-30T11:54:01;2.45;;;1.10;;
43664;SDS011;29263;48.172;11.484;2022-07-30T11:56:28;1.80;;;1.10;;
43664;SDS011;29263;48.172;11.484;2022-07-30T11:59:01;2.10;;;1.25;;
43664;SDS011;29263;48.172;11.484;2022-07-30T12:01:30;2.40;;;1.10;;
43664;SDS011;29263;48.172;11.484;2022-07-30T12:04:01;2.35;;;1.17;;
43664;SDS011;29263;48.172;11.484;2022-07-30T12:06:31;1.05;;;0.80;;
43664;SDS011;29263;48.172;11.484;2022-07-30T12:08:57;1.10;;;1.00;;
43664;SDS011;29263;48.172;11.484;2022-07-30T12:11:24;1.65;;;0.88;;
43664;SDS011;29263;48.172;11.484;2022-07-30T12:13:56;2.30;;;0.98;;
43664;SDS011;29263;48.172;11.484;2022-07-30T12:16:23;0.70;;;0.70;;
43664;SDS011;29263;48.172;11.484;2022-07-30T12:19:10;2.78;;;0.80;;
43664;SDS011;29263;48.172;11.484;2022-07-30T12:21:36;0.95;;;0.82;;
43664;SDS011;29263;48.172;11.484;2022-07-30T12:24:03;2.08;;;0.80;;
43664;SDS011;29263;48.172;11.484;2022-07-30T12:26:33;2.15;;;1.48;;
43664;SDS011;29263;48.172;11.484;2022-07-30T12:29:00;1.48;;;0.73;;
43664;SDS011;29263;48.172;11.484;2022-07-30T12:31:30;1.33;;;1.00;;
43664;SDS011;29263;48.172;11.484;2022-07-30T12:33:59;1.15;;;0.80;;
43664;SDS011;29263;48.172;11.484;2022-07-30T12:36:29;2.65;;;1.05;;
43664;SDS011;29263;48.172;11.484;2022-07-30T12:38:59;2.33;;;0.80;;
43664;SDS011;29263;48.172;11.484;2022-07-30T12:41:39;1.45;;;0.70;;
43664;SDS011;29263;48.172;11.484;2022-07-30T12:47:01;1.98;;;0.80;;
43664;SDS011;29263;48.172;11.484;2022-07-30T12:49:29;5.33;;;1.10;;
43664;SDS011;29263;48.172;11.484;2022-07-30T12:51:56;0.88;;;0.63;;
43664;SDS011;29263;48.172;11.484;2022-07-30T12:54:22;3.22;;;0.75;;
43664;SDS011;29263;48.172;11.484;2022-07-30T12:56:57;3.38;;;1.10;;
43664;SDS011;29263;48.172;11.484;2022-07-30T12:59:25;3.67;;;1.00;;
43664;SDS011;29263;48.172;11.484;2022-07-30T13:01:52;1.35;;;1.25;;
43664;SDS011;29263;48.172;11.484;2022-07-30T13:04:19;1.88;;;0.95;;
43664;SDS011;29263;48.172;11.484;2022-07-30T13:09:30;1.20;;;0.90;;
43664;SDS011;29263;48.172;11.484;2022-07-30T13:11:56;2.45;;;0.90;;
43664;SDS011;29263;48.172;11.484;2022-07-30T13:14:21;2.80;;;0.95;;
43664;SDS011;29263;48.172;11.484;2022-07-30T13:16:49;1.40;;;0.75;;
43664;SDS011;29263;48.172;11.484;2022-07-30T13:19:17;1.73;;;0.90;;
43664;SDS011;29263;48.172;11.484;2022-07-30T13:21:42;1.00;;;0.80;;
43664;SDS011;29263;48.172;11.484;2022-07-30T13:24:08;2.05;;;1.10;;
43664;SDS011;29263;48.172;11.484;2022-07-30T13:26:35;1.85;;;0.90;;
43664;SDS011;29263;48.172;11.484;2022-07-30T13:29:02;1.48;;;1.00;;
43664;SDS011;29263;48.172;11.484;2022-07-30T13:31:28;2.90;;;1.20;;
43664;SDS011;29263;48.172;11.484;2022-07-30T13:33:54;1.65;;;1.27;;
43664;SDS011;29263;48.172;11.484;2022-07-30T13:36:20;1.70;;;1.08;;
43664;SDS011;29263;48.172;11.484;2022-07-30T13:39:06;3.83;;;0.90;;
43664;SDS011;29263;48.172;11.484;2022-07-30T13:41:32;3.38;;;1.20;;
43664;SDS011;29263;48.172;11.484;2022-07-30T13:44:00;2.80;;;1.33;;
43664;SDS011;29263;48.172;11.484;2022-07-30T13:46:25;1.92;;;1.20;;
43664;SDS011;29263;48.172;11.484;2022-07-30T13:48:51;2.80;;;1.20;;
43664;SDS011;29263;48.172;11.484;2022-07-30T13:51:17;2.22;;;1.10;;
43664;SDS011;29263;48.172;11.484;2022-07-30T13:53:42;2.05;;;1.40;;
43664;SDS011;29263;48.172;11.484;2022-07-30T13:56:08;2.45;;;1.33;;
43664;SDS011;29263;48.172;11.484;2022-07-30T13:58:35;1.63;;;1.25;;
43664;SDS011;29263;48.172;11.484;2022-07-30T14:01:01;1.38;;;1.10;;
43664;SDS011;29263;48.172;11.484;2022-07-30T14:03:30;1.20;;;0.95;;
43664;SDS011;29263;48.172;11.484;2022-07-30T14:05:56;1.20;;;0.93;;
43664;SDS011;29263;48.172;11.484;2022-07-30T14:08:22;2.38;;;1.02;;
43664;SDS011;29263;48.172;11.484;2022-07-30T14:10:47;1.20;;;0.90;;
43664;SDS011;29263;48.172;11.484;2022-07-30T14:13:13;1.23;;;0.98;;
43664;SDS011;29263;48.172;11.484;2022-07-30T14:15:59;2.22;;;1.00;;
43664;SDS011;29263;48.172;11.484;2022-07-30T14:18:24;2.92;;;1.10;;
43664;SDS011;29263;48.172;11.484;2022-07-30T14:20:50;2.50;;;0.80;;
43664;SDS011;29263;48.172;11.484;2022-07-30T14:23:17;4.28;;;1.20;;
43664;SDS011;29263;48.172;11.484;2022-07-30T14:25:44;1.08;;;1.02;;
43664;SDS011;29263;48.172;11.484;2022-07-30T14:28:10;1.92;;;1.05;;
43664;SDS011;29263;48.172;11.484;2022-07-30T14:30:36;4.35;;;0.93;;
43664;SDS011;29263;48.172;11.484;2022-07-30T14:33:01;2.28;;;0.90;;
43664;SDS011;29263;48.172;11.484;2022-07-30T14:35:28;1.38;;;0.90;;
43664;SDS011;29263;48.172;11.484;2022-07-30T14:37:53;2.03;;;0.90;;
43664;SDS011;29263;48.172;11.484;2022-07-30T14:40:19;1.55;;;0.70;;
43664;SDS011;29263;48.172;11.484;2022-07-30T14:42:45;2.60;;;0.80;;
43664;SDS011;29263;48.172;11.484;2022-07-30T14:45:12;3.17;;;0.90;;
43664;SDS011;29263;48.172;11.484;2022-07-30T14:47:38;2.05;;;1.10;;
43664;SDS011;29263;48.172;11.484;2022-07-30T14:50:04;1.50;;;0.88;;
43664;SDS011;29263;48.172;11.484;2022-07-30T14:52:31;2.33;;;0.80;;
43664;SDS011;29263;48.172;11.484;2022-07-30T14:55:01;2.33;;;0.80;;
43664;SDS011;29263;48.172;11.484;2022-07-30T14:57:27;1.20;;;0.90;;
43664;SDS011;29263;48.172;11.484;2022-07-30T14:59:53;3.55;;;1.00;;
43664;SDS011;29263;48.172;11.484;2022-07-30T15:02:18;2.47;;;0.93;;
43664;SDS011;29263;48.172;11.484;2022-07-30T15:04:44;3.35;;;0.80;;
43664;SDS011;29263;48.172;11.484;2022-07-30T15:07:10;2.92;;;0.80;;
43664;SDS011;29263;48.172;11.484;2022-07-30T15:09:37;2.00;;;0.95;;
43664;SDS011;29263;48.172;11.484;2022-07-30T15:12:03;1.10;;;0.90;;
43664;SDS011;29263;48.172;11.484;2022-07-30T15:14:28;1.83;;;1.05;;
43664;SDS011;29263;48.172;11.484;2022-07-30T15:16:54;0.75;;;0.70;;
43664;SDS011;29263;48.172;11.484;2022-07-30T15:19:21;1.40;;;0.80;;
43664;SDS011;29263;48.172;11.484;2022-07-30T15:21:47;1.58;;;1.05;;
43664;SDS011;29263;48.172;11.484;2022-07-30T15:24:12;4.28;;;0.82;;
43664;SDS011;29263;48.172;11.484;2022-07-30T15:26:38;3.03;;;0.90;;
43664;SDS011;29263;48.172;11.484;2022-07-30T15:29:04;1.23;;;0.73;;
43664;SDS011;29263;48.172;11.484;2022-07-30T15:31:30;1.23;;;0.60;;